sensor_id;sensor_type;location;lat;lon;timestamp;P1;durP1;ratioP1;P2;durP2;ratioP2
16963;SDS011;8598;50.508;10.436;2023-07-13T00:02:18;4.63;;;2.00;;
16963;SDS011;8598;50.508;10.436;2023-07-13T00:04:45;5.07;;;1.93;;
16963;SDS011;8598;50.508;10.436;2023-07-13T00:07:12;4.90;;;2.40;;
16963;SDS011;8598;50.508;10.436;2023-07-13T00:09:39;3.73;;;1.73;;
16963;SDS011;8598;50.508;10.436;2023-07-13T00:12:21;4.43;;;1.90;;
16963;SDS011;8598;50.508;10.436;2023-07-13T00:14:49;2.27;;;2.10;;
16963;SDS011;8598;50.508;10.436;2023-07-13T00:17:16;3.93;;;2.20;;
16963;SDS011;8598;50.508;10.436;2023-07-13T00:19:44;2.53;;;2.27;;
16963;SDS011;8598;50.508;10.436;2023-07-13T00:22:11;2.63;;;2.17;;
16963;SDS011;8598;50.508;10.436;2023-07-13T00:24:38;5.33;;;2.17;;
16963;SDS011;8598;50.508;10.436;2023-07-13T00:27:06;3.77;;;2.43;;
16963;SDS011;8598;50.508;10.436;2023-07-13T00:29:33;2.07;;;1.97;;
16963;SDS011;8598;50.508;10.436;2023-07-13T00:32:00;2.83;;;2.10;;
16963;SDS011;8598;50.508;10.436;2023-07-13T00:34:27;2.93;;;2.10;;
16963;SDS011;8598;50.508;10.436;2023-07-13T00:36:55;3.27;;;2.57;;
16963;SDS011;8598;50.508;10.436;2023-07-13T00:39:22;3.43;;;3.13;;
16963;SDS011;8598;50.508;10.436;2023-07-13T00:41:49;4.20;;;2.07;;
16963;SDS011;8598;50.508;10.436;2023-07-13T00:44:19;2.83;;;2.53;;
16963;SDS011;8598;50.508;10.436;2023-07-13T00:46:48;3.57;;;2.00;;
16963;SDS011;8598;50.508;10.436;2023-07-13T00:49:15;2.63;;;2.40;;
16963;SDS011;8598;50.508;10.436;2023-07-13T00:51:44;2.13;;;2.03;;
16963;SDS011;8598;50.508;10.436;2023-07-13T00:54:17;4.43;;;2.20;;
16963;SDS011;8598;50.508;10.436;2023-07-13T00:56:47;3.17;;;2.10;;
16963;SDS011;8598;50.508;10.436;2023-07-13T00:59:16;2.17;;;1.97;;
16963;SDS011;8598;50.508;10.436;2023-07-13T01:01:44;4.13;;;2.53;;
16963;SDS011;8598;50.508;10.436;2023-07-13T01:04:11;3.07;;;2.43;;
16963;SDS011;8598;50.508;10.436;2023-07-13T01:06:38;3.47;;;2.00;;
16963;SDS011;8598;50.508;10.436;2023-07-13T01:09:06;2.27;;;1.97;;
16963;SDS011;8598;50.508;10.436;2023-07-13T01:11:36;2.63;;;2.43;;
16963;SDS011;8598;50.508;10.436;2023-07-13T01:14:03;2.93;;;1.90;;
16963;SDS011;8598;50.508;10.436;2023-07-13T01:16:31;3.83;;;2.00;;
16963;SDS011;8598;50.508;10.436;2023-07-13T01:18:59;2.10;;;1.60;;
16963;SDS011;8598;50.508;10.436;2023-07-13T01:21:29;6.83;;;2.07;;
16963;SDS011;8598;50.508;10.436;2023-07-13T01:23:58;2.40;;;1.90;;
16963;SDS011;8598;50.508;10.436;2023-07-13T01:26:25;2.20;;;1.90;;
16963;SDS011;8598;50.508;10.436;2023-07-13T01:28:52;6.10;;;2.20;;
16963;SDS011;8598;50.508;10.436;2023-07-13T01:31:21;3.00;;;2.43;;
16963;SDS011;8598;50.508;10.436;2023-07-13T01:33:48;2.77;;;1.60;;
16963;SDS011;8598;50.508;10.436;2023-07-13T01:36:14;3.60;;;2.00;;
16963;SDS011;8598;50.508;10.436;2023-07-13T01:38:42;3.60;;;2.00;;
16963;SDS011;8598;50.508;10.436;2023-07-13T01:41:09;3.07;;;1.87;;
16963;SDS011;8598;50.508;10.436;2023-07-13T01:43:36;3.27;;;2.27;;
16963;SDS011;8598;50.508;10.436;2023-07-13T01:46:02;2.37;;;1.90;;
16963;SDS011;8598;50.508;10.436;2023-07-13T01:48:29;2.33;;;1.63;;
16963;SDS011;8598;50.508;10.436;2023-07-13T01:50:56;2.53;;;2.20;;
16963;SDS011;8598;50.508;10.436;2023-07-13T01:53:22;2.40;;;1.90;;
16963;SDS011;8598;50.508;10.436;2023-07-13T01:55:50;2.33;;;1.60;;
16963;SDS011;8598;50.508;10.436;2023-07-13T01:58:17;2.27;;;1.73;;
16963;SDS011;8598;50.508;10.436;2023-07-13T02:00:43;2.00;;;1.77;;
16963;SDS011;8598;50.508;10.436;2023-07-13T02:03:10;2.40;;;1.80;;
16963;SDS011;8598;50.508;10.436;2023-07-13T02:05:36;6.00;;;2.13;;
16963;SDS011;8598;50.508;10.436;2023-07-13T02:08:03;2.60;;;2.03;;
16963;SDS011;8598;50.508;10.436;2023-07-13T02:10:30;2.10;;;1.90;;
16963;SDS011;8598;50.508;10.436;2023-07-13T02:12:58;6.03;;;2.20;;
16963;SDS011;8598;50.508;10.436;2023-07-13T02:15:24;4.57;;;2.20;;
16963;SDS011;8598;50.508;10.436;2023-07-13T02:17:51;2.47;;;2.20;;
16963;SDS011;8598;50.508;10.436;2023-07-13T02:20:18;4.80;;;2.73;;
16963;SDS011;8598;50.508;10.436;2023-07-13T02:22:44;2.07;;;1.87;;
16963;SDS011;8598;50.508;10.436;2023-07-13T02:25:11;5.17;;;2.00;;
16963;SDS011;8598;50.508;10.436;2023-07-13T02:27:37;4.33;;;2.00;;
16963;SDS011;8598;50.508;10.436;2023-07-13T02:30:06;5.17;;;1.83;;
16963;SDS011;8598;50.508;10.436;2023-07-13T02:32:36;4.00;;;2.23;;
16963;SDS011;8598;50.508;10.436;2023-07-13T02:35:03;5.40;;;2.63;;
16963;SDS011;8598;50.508;10.436;2023-07-13T02:37:31;2.53;;;2.30;;
16963;SDS011;8598;50.508;10.436;2023-07-13T02:39:57;6.00;;;2.23;;
16963;SDS011;8598;50.508;10.436;2023-07-13T02:42:24;5.60;;;2.20;;
16963;SDS011;8598;50.508;10.436;2023-07-13T02:44:51;2.97;;;1.73;;
16963;SDS011;8598;50.508;10.436;2023-07-13T02:47:19;8.20;;;2.00;;
16963;SDS011;8598;50.508;10.436;2023-07-13T02:49:45;6.93;;;2.10;;
16963;SDS011;8598;50.508;10.436;2023-07-13T02:52:12;8.77;;;2.10;;
16963;SDS011;8598;50.508;10.436;2023-07-13T02:54:38;10.00;;;2.30;;
16963;SDS011;8598;50.508;10.436;2023-07-13T02:57:05;7.47;;;2.33;;
16963;SDS011;8598;50.508;10.436;2023-07-13T02:59:32;8.90;;;1.97;;
16963;SDS011;8598;50.508;10.436;2023-07-13T03:02:00;8.03;;;2.37;;
16963;SDS011;8598;50.508;10.436;2023-07-13T03:04:28;3.00;;;2.03;;
16963;SDS011;8598;50.508;10.436;2023-07-13T03:06:55;5.47;;;2.10;;
16963;SDS011;8598;50.508;10.436;2023-07-13T03:09:22;4.50;;;2.30;;
16963;SDS011;8598;50.508;10.436;2023-07-13T03:11:49;6.83;;;2.53;;
16963;SDS011;8598;50.508;10.436;2023-07-13T03:14:18;4.60;;;2.27;;
16963;SDS011;8598;50.508;10.436;2023-07-13T03:16:45;9.53;;;2.47;;
16963;SDS011;8598;50.508;10.436;2023-07-13T03:19:11;10.13;;;2.70;;
16963;SDS011;8598;50.508;10.436;2023-07-13T03:21:39;6.10;;;2.80;;
16963;SDS011;8598;50.508;10.436;2023-07-13T03:24:06;3.30;;;2.00;;
16963;SDS011;8598;50.508;10.436;2023-07-13T03:26:33;6.57;;;2.67;;
16963;SDS011;8598;50.508;10.436;2023-07-13T03:29:00;4.23;;;1.70;;
16963;SDS011;8598;50.508;10.436;2023-07-13T03:31:27;3.70;;;2.23;;
16963;SDS011;8598;50.508;10.436;2023-07-13T03:33:55;6.33;;;2.37;;
16963;SDS011;8598;50.508;10.436;2023-07-13T03:36:24;7.33;;;2.40;;
16963;SDS011;8598;50.508;10.436;2023-07-13T03:38:54;4.77;;;2.20;;
16963;SDS011;8598;50.508;10.436;2023-07-13T03:41:23;5.83;;;2.40;;
16963;SDS011;8598;50.508;10.436;2023-07-13T03:43:50;3.03;;;1.90;;
16963;SDS011;8598;50.508;10.436;2023-07-13T03:46:18;2.47;;;2.27;;
16963;SDS011;8598;50.508;10.436;2023-07-13T03:48:45;4.63;;;2.47;;
16963;SDS011;8598;50.508;10.436;2023-07-13T03:51:13;6.53;;;2.50;;
16963;SDS011;8598;50.508;10.436;2023-07-13T03:53:42;3.23;;;2.67;;
16963;SDS011;8598;50.508;10.436;2023-07-13T03:56:11;9.43;;;2.40;;
16963;SDS011;8598;50.508;10.436;2023-07-13T03:58:40;6.30;;;2.80;;
16963;SDS011;8598;50.508;10.436;2023-07-13T04:01:09;5.33;;;2.20;;
16963;SDS011;8598;50.508;10.436;2023-07-13T04:03:36;4.73;;;2.10;;
16963;SDS011;8598;50.508;10.436;2023-07-13T04:06:04;3.40;;;2.10;;
16963;SDS011;8598;50.508;10.436;2023-07-13T04:08:35;6.47;;;2.27;;
16963;SDS011;8598;50.508;10.436;2023-07-13T04:11:02;2.60;;;1.90;;
16963;SDS011;8598;50.508;10.436;2023-07-13T04:13:31;11.83;;;2.30;;
16963;SDS011;8598;50.508;10.436;2023-07-13T04:15:58;3.07;;;2.13;;
16963;SDS011;8598;50.508;10.436;2023-07-13T04:18:24;2.73;;;2.20;;
16963;SDS011;8598;50.508;10.436;2023-07-13T04:20:51;6.43;;;2.43;;
16963;SDS011;8598;50.508;10.436;2023-07-13T04:23:18;8.00;;;2.20;;
16963;SDS011;8598;50.508;10.436;2023-07-13T04:25:45;8.33;;;2.70;;
16963;SDS011;8598;50.508;10.436;2023-07-13T04:28:14;4.70;;;2.30;;
16963;SDS011;8598;50.508;10.436;2023-07-13T04:30:43;7.93;;;2.27;;
16963;SDS011;8598;50.508;10.436;2023-07-13T04:33:11;5.37;;;2.57;;
16963;SDS011;8598;50.508;10.436;2023-07-13T04:35:38;3.90;;;2.00;;
16963;SDS011;8598;50.508;10.436;2023-07-13T04:38:05;6.43;;;2.33;;
16963;SDS011;8598;50.508;10.436;2023-07-13T04:40:31;4.43;;;2.17;;
16963;SDS011;8598;50.508;10.436;2023-07-13T04:42:58;8.00;;;2.43;;
16963;SDS011;8598;50.508;10.436;2023-07-13T04:45:25;2.97;;;2.00;;
16963;SDS011;8598;50.508;10.436;2023-07-13T04:47:53;4.43;;;2.80;;
16963;SDS011;8598;50.508;10.436;2023-07-13T04:50:19;4.27;;;2.53;;
16963;SDS011;8598;50.508;10.436;2023-07-13T04:52:48;5.40;;;2.87;;
16963;SDS011;8598;50.508;10.436;2023-07-13T04:55:15;3.27;;;2.37;;
16963;SDS011;8598;50.508;10.436;2023-07-13T04:57:42;4.40;;;2.30;;
16963;SDS011;8598;50.508;10.436;2023-07-13T05:00:09;3.57;;;2.27;;
16963;SDS011;8598;50.508;10.436;2023-07-13T05:02:38;6.70;;;2.40;;
16963;SDS011;8598;50.508;10.436;2023-07-13T05:05:07;2.60;;;2.40;;
16963;SDS011;8598;50.508;10.436;2023-07-13T05:07:34;2.73;;;2.50;;
16963;SDS011;8598;50.508;10.436;2023-07-13T05:10:01;3.70;;;1.70;;
16963;SDS011;8598;50.508;10.436;2023-07-13T05:12:28;3.40;;;1.93;;
16963;SDS011;8598;50.508;10.436;2023-07-13T05:14:55;4.77;;;1.53;;
16963;SDS011;8598;50.508;10.436;2023-07-13T05:17:22;3.80;;;1.33;;
16963;SDS011;8598;50.508;10.436;2023-07-13T05:19:49;1.20;;;1.10;;
16963;SDS011;8598;50.508;10.436;2023-07-13T05:22:16;5.17;;;1.50;;
16963;SDS011;8598;50.508;10.436;2023-07-13T05:24:43;2.90;;;1.67;;
16963;SDS011;8598;50.508;10.436;2023-07-13T05:27:10;4.17;;;1.30;;
16963;SDS011;8598;50.508;10.436;2023-07-13T05:29:36;3.90;;;1.67;;
16963;SDS011;8598;50.508;10.436;2023-07-13T05:32:03;5.23;;;1.57;;
16963;SDS011;8598;50.508;10.436;2023-07-13T05:34:30;3.87;;;1.53;;
16963;SDS011;8598;50.508;10.436;2023-07-13T05:36:57;4.40;;;1.50;;
16963;SDS011;8598;50.508;10.436;2023-07-13T05:39:25;2.03;;;1.43;;
16963;SDS011;8598;50.508;10.436;2023-07-13T05:41:52;2.60;;;1.33;;
16963;SDS011;8598;50.508;10.436;2023-07-13T05:44:19;2.33;;;1.13;;
16963;SDS011;8598;50.508;10.436;2023-07-13T05:46:45;2.13;;;1.57;;
16963;SDS011;8598;50.508;10.436;2023-07-13T05:49:12;2.20;;;1.20;;
16963;SDS011;8598;50.508;10.436;2023-07-13T05:51:39;6.10;;;1.23;;
16963;SDS011;8598;50.508;10.436;2023-07-13T05:54:05;6.43;;;1.50;;
16963;SDS011;8598;50.508;10.436;2023-07-13T05:56:33;7.13;;;1.33;;
16963;SDS011;8598;50.508;10.436;2023-07-13T05:59:00;8.00;;;1.50;;
16963;SDS011;8598;50.508;10.436;2023-07-13T06:01:26;6.10;;;1.20;;
16963;SDS011;8598;50.508;10.436;2023-07-13T06:03:53;2.93;;;1.33;;
16963;SDS011;8598;50.508;10.436;2023-07-13T06:06:19;5.33;;;1.50;;
16963;SDS011;8598;50.508;10.436;2023-07-13T06:08:46;4.53;;;1.57;;
16963;SDS011;8598;50.508;10.436;2023-07-13T06:11:14;9.50;;;1.37;;
16963;SDS011;8598;50.508;10.436;2023-07-13T06:13:43;2.67;;;1.50;;
16963;SDS011;8598;50.508;10.436;2023-07-13T06:16:10;2.03;;;1.50;;
16963;SDS011;8598;50.508;10.436;2023-07-13T06:18:37;5.70;;;1.60;;
16963;SDS011;8598;50.508;10.436;2023-07-13T06:21:06;4.10;;;1.37;;
16963;SDS011;8598;50.508;10.436;2023-07-13T06:23:33;9.90;;;1.20;;
16963;SDS011;8598;50.508;10.436;2023-07-13T06:26:00;3.53;;;1.60;;
16963;SDS011;8598;50.508;10.436;2023-07-13T06:28:27;6.23;;;1.33;;
16963;SDS011;8598;50.508;10.436;2023-07-13T06:30:55;5.17;;;1.23;;
16963;SDS011;8598;50.508;10.436;2023-07-13T06:33:22;2.17;;;1.30;;
16963;SDS011;8598;50.508;10.436;2023-07-13T06:35:49;8.73;;;1.70;;
16963;SDS011;8598;50.508;10.436;2023-07-13T06:38:15;3.25;;;1.17;;
16963;SDS011;8598;50.508;10.436;2023-07-13T06:40:42;3.28;;;1.40;;
16963;SDS011;8598;50.508;10.436;2023-07-13T06:43:08;4.40;;;1.30;;
16963;SDS011;8598;50.508;10.436;2023-07-13T06:45:36;3.07;;;1.20;;
16963;SDS011;8598;50.508;10.436;2023-07-13T06:48:08;3.03;;;1.33;;
16963;SDS011;8598;50.508;10.436;2023-07-13T06:50:35;4.73;;;1.20;;
16963;SDS011;8598;50.508;10.436;2023-07-13T06:53:02;5.95;;;1.15;;
16963;SDS011;8598;50.508;10.436;2023-07-13T06:55:28;4.50;;;2.00;;
16963;SDS011;8598;50.508;10.436;2023-07-13T06:57:55;6.40;;;1.60;;
16963;SDS011;8598;50.508;10.436;2023-07-13T07:00:22;2.90;;;1.17;;
16963;SDS011;8598;50.508;10.436;2023-07-13T07:02:48;4.10;;;1.20;;
16963;SDS011;8598;50.508;10.436;2023-07-13T07:05:16;5.03;;;1.30;;
16963;SDS011;8598;50.508;10.436;2023-07-13T07:07:46;6.33;;;1.20;;
16963;SDS011;8598;50.508;10.436;2023-07-13T07:10:13;3.87;;;1.20;;
16963;SDS011;8598;50.508;10.436;2023-07-13T07:12:40;3.88;;;1.25;;
16963;SDS011;8598;50.508;10.436;2023-07-13T07:15:06;2.95;;;1.00;;
16963;SDS011;8598;50.508;10.436;2023-07-13T07:17:33;3.13;;;0.80;;
16963;SDS011;8598;50.508;10.436;2023-07-13T07:20:00;2.87;;;0.90;;
16963;SDS011;8598;50.508;10.436;2023-07-13T07:22:28;1.87;;;0.80;;
16963;SDS011;8598;50.508;10.436;2023-07-13T07:24:55;2.57;;;0.70;;
16963;SDS011;8598;50.508;10.436;2023-07-13T07:27:21;3.13;;;0.60;;
16963;SDS011;8598;50.508;10.436;2023-07-13T07:29:48;2.70;;;0.90;;
16963;SDS011;8598;50.508;10.436;2023-07-13T07:32:15;7.60;;;0.90;;
16963;SDS011;8598;50.508;10.436;2023-07-13T07:34:41;2.63;;;0.70;;
16963;SDS011;8598;50.508;10.436;2023-07-13T07:37:09;1.67;;;0.60;;
16963;SDS011;8598;50.508;10.436;2023-07-13T07:39:39;0.97;;;0.50;;
16963;SDS011;8598;50.508;10.436;2023-07-13T07:42:06;6.67;;;0.83;;
16963;SDS011;8598;50.508;10.436;2023-07-13T07:44:33;1.30;;;0.50;;
16963;SDS011;8598;50.508;10.436;2023-07-13T07:47:00;1.17;;;0.63;;
16963;SDS011;8598;50.508;10.436;2023-07-13T07:49:26;4.13;;;0.57;;
16963;SDS011;8598;50.508;10.436;2023-07-13T07:51:53;1.23;;;0.60;;
16963;SDS011;8598;50.508;10.436;2023-07-13T07:54:20;0.53;;;0.53;;
16963;SDS011;8598;50.508;10.436;2023-07-13T07:56:48;1.37;;;0.50;;
16963;SDS011;8598;50.508;10.436;2023-07-13T07:59:14;0.83;;;0.60;;
16963;SDS011;8598;50.508;10.436;2023-07-13T08:01:41;2.20;;;0.50;;
16963;SDS011;8598;50.508;10.436;2023-07-13T08:04:08;1.43;;;0.50;;
16963;SDS011;8598;50.508;10.436;2023-07-13T08:06:35;1.73;;;0.90;;
16963;SDS011;8598;50.508;10.436;2023-07-13T08:09:02;2.20;;;0.50;;
16963;SDS011;8598;50.508;10.436;2023-07-13T08:11:29;0.63;;;0.50;;
16963;SDS011;8598;50.508;10.436;2023-07-13T08:13:57;4.37;;;0.60;;
16963;SDS011;8598;50.508;10.436;2023-07-13T08:16:24;2.30;;;0.70;;
16963;SDS011;8598;50.508;10.436;2023-07-13T08:18:51;0.83;;;0.47;;
16963;SDS011;8598;50.508;10.436;2023-07-13T08:21:17;1.83;;;0.67;;
16963;SDS011;8598;50.508;10.436;2023-07-13T08:23:45;0.60;;;0.43;;
16963;SDS011;8598;50.508;10.436;2023-07-13T08:26:12;2.50;;;0.50;;
16963;SDS011;8598;50.508;10.436;2023-07-13T08:28:38;1.03;;;0.70;;
16963;SDS011;8598;50.508;10.436;2023-07-13T08:31:07;0.47;;;0.47;;
16963;SDS011;8598;50.508;10.436;2023-07-13T08:33:34;1.93;;;0.50;;
16963;SDS011;8598;50.508;10.436;2023-07-13T08:36:02;0.80;;;0.77;;
16963;SDS011;8598;50.508;10.436;2023-07-13T08:38:30;1.73;;;0.70;;
16963;SDS011;8598;50.508;10.436;2023-07-13T08:40:56;1.57;;;0.97;;
16963;SDS011;8598;50.508;10.436;2023-07-13T08:43:25;1.63;;;0.67;;
16963;SDS011;8598;50.508;10.436;2023-07-13T08:45:55;0.80;;;0.57;;
16963;SDS011;8598;50.508;10.436;2023-07-13T08:48:31;1.60;;;0.53;;
16963;SDS011;8598;50.508;10.436;2023-07-13T08:51:02;2.00;;;0.60;;
16963;SDS011;8598;50.508;10.436;2023-07-13T08:53:36;3.70;;;0.83;;
16963;SDS011;8598;50.508;10.436;2023-07-13T08:56:08;1.17;;;0.70;;
16963;SDS011;8598;50.508;10.436;2023-07-13T08:58:39;1.60;;;0.60;;
16963;SDS011;8598;50.508;10.436;2023-07-13T09:01:10;1.70;;;0.70;;
16963;SDS011;8598;50.508;10.436;2023-07-13T09:03:51;1.77;;;0.70;;
16963;SDS011;8598;50.508;10.436;2023-07-13T09:06:31;2.63;;;0.57;;
16963;SDS011;8598;50.508;10.436;2023-07-13T09:09:07;3.63;;;0.70;;
16963;SDS011;8598;50.508;10.436;2023-07-13T09:11:44;1.63;;;0.90;;
16963;SDS011;8598;50.508;10.436;2023-07-13T09:14:26;0.90;;;0.60;;
16963;SDS011;8598;50.508;10.436;2023-07-13T09:17:00;2.30;;;0.70;;
16963;SDS011;8598;50.508;10.436;2023-07-13T09:19:31;1.57;;;0.57;;
16963;SDS011;8598;50.508;10.436;2023-07-13T09:22:01;1.00;;;0.80;;
16963;SDS011;8598;50.508;10.436;2023-07-13T09:24:34;2.17;;;0.70;;
16963;SDS011;8598;50.508;10.436;2023-07-13T09:27:03;1.37;;;0.60;;
16963;SDS011;8598;50.508;10.436;2023-07-13T09:29:42;2.13;;;0.90;;
16963;SDS011;8598;50.508;10.436;2023-07-13T09:32:13;0.60;;;0.40;;
16963;SDS011;8598;50.508;10.436;2023-07-13T09:34:45;1.20;;;0.50;;
16963;SDS011;8598;50.508;10.436;2023-07-13T09:37:17;0.30;;;0.30;;
16963;SDS011;8598;50.508;10.436;2023-07-13T09:39:46;1.80;;;0.50;;
16963;SDS011;8598;50.508;10.436;2023-07-13T09:42:14;1.27;;;0.70;;
16963;SDS011;8598;50.508;10.436;2023-07-13T09:44:44;2.30;;;0.87;;
16963;SDS011;8598;50.508;10.436;2023-07-13T09:47:18;5.33;;;0.80;;
16963;SDS011;8598;50.508;10.436;2023-07-13T09:49:55;3.03;;;0.50;;
16963;SDS011;8598;50.508;10.436;2023-07-13T09:52:23;1.93;;;0.50;;
16963;SDS011;8598;50.508;10.436;2023-07-13T09:54:52;1.33;;;0.53;;
16963;SDS011;8598;50.508;10.436;2023-07-13T09:57:24;1.90;;;0.70;;
16963;SDS011;8598;50.508;10.436;2023-07-13T09:59:52;1.37;;;0.80;;
16963;SDS011;8598;50.508;10.436;2023-07-13T10:02:26;3.23;;;0.90;;
16963;SDS011;8598;50.508;10.436;2023-07-13T10:04:56;3.27;;;0.73;;
16963;SDS011;8598;50.508;10.436;2023-07-13T10:07:25;0.50;;;0.43;;
16963;SDS011;8598;50.508;10.436;2023-07-13T10:09:52;1.90;;;0.43;;
16963;SDS011;8598;50.508;10.436;2023-07-13T10:12:19;0.50;;;0.50;;
16963;SDS011;8598;50.508;10.436;2023-07-13T10:14:48;2.00;;;0.50;;
16963;SDS011;8598;50.508;10.436;2023-07-13T10:17:17;1.90;;;0.50;;
16963;SDS011;8598;50.508;10.436;2023-07-13T10:19:46;1.70;;;0.60;;
16963;SDS011;8598;50.508;10.436;2023-07-13T10:22:17;2.03;;;0.50;;
16963;SDS011;8598;50.508;10.436;2023-07-13T10:24:51;0.53;;;0.50;;
16963;SDS011;8598;50.508;10.436;2023-07-13T10:27:20;3.13;;;0.50;;
16963;SDS011;8598;50.508;10.436;2023-07-13T10:29:52;2.53;;;1.03;;
16963;SDS011;8598;50.508;10.436;2023-07-13T10:32:25;1.97;;;0.63;;
16963;SDS011;8598;50.508;10.436;2023-07-13T10:34:52;1.43;;;0.57;;
16963;SDS011;8598;50.508;10.436;2023-07-13T10:37:23;0.90;;;0.53;;
16963;SDS011;8598;50.508;10.436;2023-07-13T10:39:53;0.50;;;0.50;;
16963;SDS011;8598;50.508;10.436;2023-07-13T10:42:26;1.10;;;0.70;;
16963;SDS011;8598;50.508;10.436;2023-07-13T10:44:56;0.50;;;0.40;;
16963;SDS011;8598;50.508;10.436;2023-07-13T10:47:23;0.97;;;0.70;;
16963;SDS011;8598;50.508;10.436;2023-07-13T10:49:52;1.43;;;0.63;;
16963;SDS011;8598;50.508;10.436;2023-07-13T10:52:42;2.13;;;0.60;;
16963;SDS011;8598;50.508;10.436;2023-07-13T10:58:02;0.93;;;0.47;;
16963;SDS011;8598;50.508;10.436;2023-07-13T11:00:43;0.80;;;0.50;;
16963;SDS011;8598;50.508;10.436;2023-07-13T11:03:14;2.10;;;0.60;;
16963;SDS011;8598;50.508;10.436;2023-07-13T11:05:43;0.83;;;0.60;;
16963;SDS011;8598;50.508;10.436;2023-07-13T11:08:18;0.30;;;0.30;;
16963;SDS011;8598;50.508;10.436;2023-07-13T11:10:51;1.87;;;0.60;;
16963;SDS011;8598;50.508;10.436;2023-07-13T11:13:39;2.70;;;0.70;;
16963;SDS011;8598;50.508;10.436;2023-07-13T11:16:38;2.10;;;0.60;;
16963;SDS011;8598;50.508;10.436;2023-07-13T11:22:12;0.50;;;0.40;;
16963;SDS011;8598;50.508;10.436;2023-07-13T11:24:51;1.27;;;0.60;;
16963;SDS011;8598;50.508;10.436;2023-07-13T11:27:27;1.47;;;0.67;;
16963;SDS011;8598;50.508;10.436;2023-07-13T11:32:51;3.87;;;0.57;;
16963;SDS011;8598;50.508;10.436;2023-07-13T11:35:31;1.57;;;0.60;;
16963;SDS011;8598;50.508;10.436;2023-07-13T11:38:01;1.67;;;0.60;;
16963;SDS011;8598;50.508;10.436;2023-07-13T11:40:30;0.40;;;0.40;;
16963;SDS011;8598;50.508;10.436;2023-07-13T11:42:59;1.90;;;0.60;;
16963;SDS011;8598;50.508;10.436;2023-07-13T11:45:27;1.07;;;0.50;;
16963;SDS011;8598;50.508;10.436;2023-07-13T11:47:54;0.40;;;0.40;;
16963;SDS011;8598;50.508;10.436;2023-07-13T11:50:23;1.17;;;0.50;;
16963;SDS011;8598;50.508;10.436;2023-07-13T11:52:51;1.13;;;0.50;;
16963;SDS011;8598;50.508;10.436;2023-07-13T11:55:21;0.40;;;0.40;;
16963;SDS011;8598;50.508;10.436;2023-07-13T11:57:53;2.63;;;0.70;;
16963;SDS011;8598;50.508;10.436;2023-07-13T12:00:25;0.43;;;0.43;;
16963;SDS011;8598;50.508;10.436;2023-07-13T12:02:56;1.23;;;0.47;;
16963;SDS011;8598;50.508;10.436;2023-07-13T12:05:25;2.17;;;0.70;;
16963;SDS011;8598;50.508;10.436;2023-07-13T12:07:53;1.57;;;0.50;;
16963;SDS011;8598;50.508;10.436;2023-07-13T12:10:21;0.90;;;0.33;;
16963;SDS011;8598;50.508;10.436;2023-07-13T12:12:53;1.80;;;0.50;;
16963;SDS011;8598;50.508;10.436;2023-07-13T12:15:21;0.67;;;0.40;;
16963;SDS011;8598;50.508;10.436;2023-07-13T12:17:49;0.97;;;0.40;;
16963;SDS011;8598;50.508;10.436;2023-07-13T12:20:21;0.67;;;0.50;;
16963;SDS011;8598;50.508;10.436;2023-07-13T12:22:50;1.80;;;0.70;;
16963;SDS011;8598;50.508;10.436;2023-07-13T12:25:18;1.13;;;0.50;;
16963;SDS011;8598;50.508;10.436;2023-07-13T12:27:49;1.83;;;0.43;;
16963;SDS011;8598;50.508;10.436;2023-07-13T12:30:28;0.77;;;0.57;;
16963;SDS011;8598;50.508;10.436;2023-07-13T12:32:59;0.70;;;0.60;;
16963;SDS011;8598;50.508;10.436;2023-07-13T12:35:28;6.57;;;0.60;;
16963;SDS011;8598;50.508;10.436;2023-07-13T12:38:00;2.40;;;0.70;;
16963;SDS011;8598;50.508;10.436;2023-07-13T12:40:28;0.60;;;0.50;;
16963;SDS011;8598;50.508;10.436;2023-07-13T12:42:59;0.63;;;0.47;;
16963;SDS011;8598;50.508;10.436;2023-07-13T12:45:30;1.70;;;0.50;;
16963;SDS011;8598;50.508;10.436;2023-07-13T12:47:58;0.80;;;0.60;;
16963;SDS011;8598;50.508;10.436;2023-07-13T12:50:30;1.67;;;0.60;;
16963;SDS011;8598;50.508;10.436;2023-07-13T12:53:03;0.70;;;0.47;;
16963;SDS011;8598;50.508;10.436;2023-07-13T12:55:39;1.13;;;1.03;;
16963;SDS011;8598;50.508;10.436;2023-07-13T12:58:09;1.27;;;0.70;;
16963;SDS011;8598;50.508;10.436;2023-07-13T13:00:49;1.77;;;0.50;;
16963;SDS011;8598;50.508;10.436;2023-07-13T13:03:21;4.53;;;0.60;;
16963;SDS011;8598;50.508;10.436;2023-07-13T13:05:56;0.70;;;0.60;;
16963;SDS011;8598;50.508;10.436;2023-07-13T13:08:25;0.97;;;0.70;;
16963;SDS011;8598;50.508;10.436;2023-07-13T13:10:51;2.60;;;0.70;;
16963;SDS011;8598;50.508;10.436;2023-07-13T13:13:18;0.60;;;0.50;;
16963;SDS011;8598;50.508;10.436;2023-07-13T13:15:45;1.03;;;0.50;;
16963;SDS011;8598;50.508;10.436;2023-07-13T13:18:16;0.57;;;0.50;;
16963;SDS011;8598;50.508;10.436;2023-07-13T13:20:44;3.10;;;0.47;;
16963;SDS011;8598;50.508;10.436;2023-07-13T13:23:12;2.97;;;0.53;;
16963;SDS011;8598;50.508;10.436;2023-07-13T13:25:40;0.83;;;0.60;;
16963;SDS011;8598;50.508;10.436;2023-07-13T13:28:11;1.07;;;0.40;;
16963;SDS011;8598;50.508;10.436;2023-07-13T13:30:41;2.83;;;0.40;;
16963;SDS011;8598;50.508;10.436;2023-07-13T13:33:09;2.80;;;0.80;;
16963;SDS011;8598;50.508;10.436;2023-07-13T13:35:39;1.03;;;0.53;;
16963;SDS011;8598;50.508;10.436;2023-07-13T13:38:09;0.97;;;0.40;;
16963;SDS011;8598;50.508;10.436;2023-07-13T13:40:37;1.63;;;0.63;;
16963;SDS011;8598;50.508;10.436;2023-07-13T13:43:08;2.00;;;0.50;;
16963;SDS011;8598;50.508;10.436;2023-07-13T13:45:41;0.80;;;0.80;;
16963;SDS011;8598;50.508;10.436;2023-07-13T13:48:08;1.50;;;0.70;;
16963;SDS011;8598;50.508;10.436;2023-07-13T13:50:42;2.77;;;0.60;;
16963;SDS011;8598;50.508;10.436;2023-07-13T13:53:10;1.03;;;0.70;;
16963;SDS011;8598;50.508;10.436;2023-07-13T13:55:38;0.63;;;0.60;;
16963;SDS011;8598;50.508;10.436;2023-07-13T13:58:07;2.23;;;0.80;;
16963;SDS011;8598;50.508;10.436;2023-07-13T14:00:34;2.77;;;0.50;;
16963;SDS011;8598;50.508;10.436;2023-07-13T14:03:01;0.70;;;0.57;;
16963;SDS011;8598;50.508;10.436;2023-07-13T14:05:28;1.93;;;0.63;;
16963;SDS011;8598;50.508;10.436;2023-07-13T14:07:56;2.77;;;0.50;;
16963;SDS011;8598;50.508;10.436;2023-07-13T14:10:24;6.50;;;0.67;;
16963;SDS011;8598;50.508;10.436;2023-07-13T14:12:53;1.17;;;0.70;;
16963;SDS011;8598;50.508;10.436;2023-07-13T14:15:22;0.70;;;0.50;;
16963;SDS011;8598;50.508;10.436;2023-07-13T14:17:51;1.00;;;0.53;;
16963;SDS011;8598;50.508;10.436;2023-07-13T14:20:20;9.90;;;0.97;;
16963;SDS011;8598;50.508;10.436;2023-07-13T14:22:49;1.93;;;0.60;;
16963;SDS011;8598;50.508;10.436;2023-07-13T14:25:17;3.23;;;0.70;;
16963;SDS011;8598;50.508;10.436;2023-07-13T14:27:46;2.40;;;0.87;;
16963;SDS011;8598;50.508;10.436;2023-07-13T14:30:16;5.93;;;0.80;;
16963;SDS011;8598;50.508;10.436;2023-07-13T14:32:45;1.43;;;0.60;;
16963;SDS011;8598;50.508;10.436;2023-07-13T14:35:14;1.67;;;0.67;;
16963;SDS011;8598;50.508;10.436;2023-07-13T14:37:42;0.83;;;0.60;;
16963;SDS011;8598;50.508;10.436;2023-07-13T14:40:12;0.93;;;0.70;;
16963;SDS011;8598;50.508;10.436;2023-07-13T14:42:41;2.40;;;0.60;;
16963;SDS011;8598;50.508;10.436;2023-07-13T14:45:12;1.23;;;0.50;;
16963;SDS011;8598;50.508;10.436;2023-07-13T14:47:40;1.77;;;0.70;;
16963;SDS011;8598;50.508;10.436;2023-07-13T14:50:11;4.17;;;0.70;;
16963;SDS011;8598;50.508;10.436;2023-07-13T14:52:40;11.10;;;0.87;;
16963;SDS011;8598;50.508;10.436;2023-07-13T14:55:08;4.23;;;0.70;;
16963;SDS011;8598;50.508;10.436;2023-07-13T14:57:36;5.50;;;0.87;;
16963;SDS011;8598;50.508;10.436;2023-07-13T15:00:05;1.63;;;0.87;;
16963;SDS011;8598;50.508;10.436;2023-07-13T15:02:40;2.57;;;0.60;;
16963;SDS011;8598;50.508;10.436;2023-07-13T15:05:12;1.53;;;0.70;;
16963;SDS011;8598;50.508;10.436;2023-07-13T15:07:40;1.83;;;0.90;;